createdAt,value
2019-01-11T00:01:30.027Z,54.1
2019-01-11T00:06:28.619Z,54.1
2019-01-11T00:11:27.324Z,54.2
2019-01-11T00:16:25.779Z,54.1
2019-01-11T00:21:24.442Z,54.1
2019-01-11T00:26:23.230Z,54.1
2019-01-11T00:31:21.659Z,54.1
2019-01-11T00:36:20.236Z,54.1
2019-01-11T00:41:19.116Z,54.1
2019-01-11T00:46:17.854Z,54.1
2019-01-11T00:51:16.166Z,54.1
2019-01-11T00:56:14.667Z,54.1
2019-01-11T01:01:13.355Z,54.1
2019-01-11T01:06:11.933Z,54.1
2019-01-11T01:11:10.101Z,54.1
2019-01-11T01:16:08.547Z,54.1
2019-01-11T01:21:07.258Z,54.1
2019-01-11T01:26:05.886Z,54.1
2019-01-11T01:31:04.460Z,54.1
2019-01-11T01:36:03.017Z,54.1
2019-01-11T01:41:01.582Z,54.1
2019-01-11T01:46:00.236Z,54.1
2019-01-11T01:50:58.785Z,54.1
2019-01-11T01:55:57.411Z,54.2
2019-01-11T02:00:56.025Z,54.1
2019-01-11T02:05:54.649Z,54.1
2019-01-11T02:10:53.104Z,54.1
2019-01-11T02:15:51.574Z,54.1
2019-01-11T02:20:50.063Z,54.1
2019-01-11T02:25:48.656Z,54.1
2019-01-11T02:30:47.206Z,54.1
2019-01-11T02:35:45.606Z,54.1
2019-01-11T02:40:44.220Z,54.1
2019-01-11T02:45:42.854Z,54.1
2019-01-11T02:50:41.287Z,54.2
2019-01-11T02:55:39.056Z,54.1
2019-01-11T03:00:37.450Z,54.1
2019-01-11T03:05:35.983Z,54.1
2019-01-11T03:10:34.559Z,54.1
2019-01-11T03:15:32.872Z,54
2019-01-11T03:20:31.355Z,54
2019-01-11T03:25:29.846Z,54
2019-01-11T03:30:28.617Z,54
2019-01-11T03:35:27.036Z,53.9
2019-01-11T03:40:25.504Z,53.8
2019-01-11T03:45:23.645Z,53.8
2019-01-11T03:50:22.198Z,53.8
2019-01-11T03:55:20.627Z,53.8
2019-01-11T04:00:19.219Z,53.7
2019-01-11T04:05:17.796Z,53.8
2019-01-11T04:10:16.588Z,53.8
2019-01-11T04:15:15.114Z,53.7
2019-01-11T04:20:13.598Z,53.7
2019-01-11T04:25:12.092Z,53.7
2019-01-11T04:30:10.610Z,53.7
2019-01-11T04:35:09.161Z,53.6
2019-01-11T04:40:09.419Z,53.6
2019-01-11T04:45:07.740Z,53.6
2019-01-11T04:50:09.962Z,53.6
2019-01-11T04:55:07.860Z,53.6
2019-01-11T05:00:06.458Z,53.5
2019-01-11T05:05:04.875Z,53.5
2019-01-11T05:10:03.581Z,53.5
2019-01-11T05:15:02.173Z,53.5
2019-01-11T05:20:00.821Z,53.4
2019-01-11T05:24:59.423Z,53.4
2019-01-11T05:29:58.168Z,53.4
2019-01-11T05:34:56.659Z,53.4
2019-01-11T05:39:54.741Z,53.4
2019-01-11T05:44:53.528Z,53.4
2019-01-11T05:49:52.288Z,53.3
2019-01-11T05:54:50.737Z,53.3
2019-01-11T05:59:49.256Z,53.3
2019-01-11T06:04:47.981Z,53.3
2019-01-11T06:09:46.250Z,53.2
2019-01-11T06:14:44.755Z,53.2
2019-01-11T06:19:43.261Z,53.2
2019-01-11T06:24:41.903Z,53.2
2019-01-11T06:29:39.795Z,53.2
2019-01-11T06:34:38.564Z,53.2
2019-01-11T06:39:37.149Z,53.1
2019-01-11T06:44:39.445Z,53.2
2019-01-11T06:49:37.273Z,53.1
2019-01-11T06:54:35.570Z,53.1
2019-01-11T06:59:33.837Z,53.1
2019-01-11T07:04:32.378Z,53.1
2019-01-11T07:09:30.946Z,53.1
2019-01-11T07:14:29.243Z,53.1
2019-01-11T07:19:27.816Z,53.1
2019-01-11T07:24:26.478Z,53.2
2019-01-11T07:29:25.128Z,53.1
2019-01-11T07:34:23.461Z,53.1
2019-01-11T07:39:22.109Z,53.1
2019-01-11T07:44:20.716Z,53.2
2019-01-11T07:49:23.494Z,53.2
2019-01-11T07:54:21.310Z,53.2
2019-01-11T07:59:19.838Z,53.1
2019-01-11T08:04:18.361Z,53.2
2019-01-11T08:09:16.951Z,53.1
2019-01-11T08:14:15.597Z,53.2
2019-01-11T08:19:15.375Z,53.2
2019-01-11T08:24:13.895Z,53.1
2019-01-11T08:29:12.586Z,53.2
2019-01-11T08:34:11.220Z,53.3
2019-01-11T08:39:09.901Z,53.4
2019-01-11T08:44:08.495Z,53.4
2019-01-11T08:49:07.077Z,53.4
2019-01-11T08:54:05.299Z,53.4
2019-01-11T08:59:03.846Z,53.3
2019-01-11T09:04:02.395Z,53.4
2019-01-11T09:09:01.091Z,53.4
2019-01-11T09:13:59.737Z,53.4
2019-01-11T09:18:58.274Z,53.5
2019-01-11T09:23:56.969Z,53.5
2019-01-11T09:28:55.551Z,53.5
2019-01-11T09:33:54.075Z,53.5
2019-01-11T09:38:52.764Z,53.6
2019-01-11T09:43:51.354Z,53.6
2019-01-11T09:48:49.954Z,53.6
2019-01-11T09:53:48.372Z,53.7
2019-01-11T09:58:46.988Z,53.7
2019-01-11T10:03:45.544Z,53.8
2019-01-11T10:08:44.073Z,53.8
2019-01-11T10:13:42.675Z,53.9
2019-01-11T10:18:41.389Z,54
2019-01-11T10:23:39.953Z,54
2019-01-11T10:28:38.844Z,54
2019-01-11T10:33:37.502Z,54.1
2019-01-11T10:38:36.200Z,54.1
2019-01-11T10:43:34.832Z,54.1
2019-01-11T10:48:33.418Z,54.1
2019-01-11T10:53:31.856Z,54.2
2019-01-11T10:58:30.566Z,54.2
2019-01-11T11:03:29.082Z,54.2
2019-01-11T11:08:27.661Z,54.3
2019-01-11T11:13:26.343Z,54.3
2019-01-11T11:18:25.143Z,54.3
2019-01-11T11:23:23.387Z,54.4
2019-01-11T11:28:21.976Z,54.4
2019-01-11T11:33:20.396Z,54.4
2019-01-11T11:38:19.335Z,54.5
2019-01-11T11:43:17.615Z,54.4
2019-01-11T11:48:15.922Z,54.4
2019-01-11T11:53:14.643Z,54.5
2019-01-11T11:58:13.349Z,54.5
2019-01-11T12:03:11.852Z,54.5
2019-01-11T12:08:10.716Z,54.6
2019-01-11T12:13:09.296Z,54.5
2019-01-11T12:18:07.882Z,54.6
2019-01-11T12:23:06.517Z,54.6
2019-01-11T12:28:04.658Z,54.6
2019-01-11T12:33:02.984Z,54.6
2019-01-11T12:38:02.277Z,54.6
2019-01-11T12:43:00.819Z,54.6
2019-01-11T12:47:59.418Z,54.6
2019-01-11T12:52:58.013Z,54.6
2019-01-11T12:57:56.630Z,54.6
2019-01-11T13:02:55.024Z,54.6
2019-01-11T13:07:53.730Z,54.6
2019-01-11T13:12:52.357Z,54.6
2019-01-11T13:17:51.059Z,54.6
2019-01-11T13:22:49.337Z,54.7
2019-01-11T13:27:48.093Z,54.7
2019-01-11T13:32:46.116Z,54.7
2019-01-11T13:37:44.639Z,54.7
2019-01-11T13:42:43.390Z,54.7
2019-01-11T13:47:41.843Z,54.7
2019-01-11T13:52:40.599Z,54.7
2019-01-11T13:57:39.325Z,54.7
2019-01-11T14:02:37.990Z,54.6
2019-01-11T14:07:36.678Z,54.7
2019-01-11T14:12:35.191Z,54.6
2019-01-11T14:17:33.848Z,54.6
2019-01-11T14:22:32.360Z,54.6
2019-01-11T14:27:30.259Z,54.6
2019-01-11T14:32:28.742Z,54.6
2019-01-11T14:37:32.555Z,54.6
2019-01-11T14:42:30.318Z,54.6
2019-01-11T14:47:28.623Z,54.6
2019-01-11T14:52:27.212Z,54.6
2019-01-11T14:57:25.760Z,54.6
2019-01-11T15:02:24.432Z,54.6
2019-01-11T15:07:23.174Z,54.6
2019-01-11T15:12:21.922Z,54.6
2019-01-11T15:17:20.894Z,54.6
2019-01-11T15:22:19.604Z,54.6
2019-01-11T15:27:18.111Z,54.5
2019-01-11T15:32:16.705Z,54.5
2019-01-11T15:37:15.334Z,54.5
2019-01-11T15:42:14.025Z,54.5
2019-01-11T15:47:12.002Z,54.5
2019-01-11T15:52:10.552Z,54.5
2019-01-11T15:57:09.098Z,54.5
2019-01-11T16:02:07.922Z,54.5
2019-01-11T16:07:06.296Z,54.4
2019-01-11T16:12:05.112Z,54.4
2019-01-11T16:17:03.683Z,54.4
2019-01-11T16:22:02.270Z,54.5
2019-01-11T16:27:00.259Z,54.4
2019-01-11T16:31:59.729Z,54.4
2019-01-11T16:36:58.194Z,54.3
2019-01-11T16:41:57.004Z,54.3
2019-01-11T16:46:55.575Z,54.3
2019-01-11T16:51:54.037Z,54.3
2019-01-11T16:56:51.968Z,54.3
2019-01-11T17:01:50.826Z,54.3
2019-01-11T17:06:49.153Z,54.2
2019-01-11T17:11:47.808Z,54.2
2019-01-11T17:16:45.877Z,54.2
2019-01-11T17:21:44.505Z,54.2
2019-01-11T17:26:43.044Z,54.1
2019-01-11T17:31:41.625Z,54.1
2019-01-11T17:36:40.257Z,54.1
2019-01-11T17:41:38.838Z,54.1
2019-01-11T17:46:37.648Z,54.1
2019-01-11T17:51:36.311Z,54.1
2019-01-11T17:56:34.353Z,54.1
2019-01-11T18:01:32.829Z,54.1
2019-01-11T18:06:31.530Z,54
2019-01-11T18:11:30.181Z,54
2019-01-11T18:16:28.937Z,54
2019-01-11T18:21:27.545Z,54
2019-01-11T18:26:26.356Z,54
2019-01-11T18:31:25.032Z,54
2019-01-11T18:36:23.646Z,54
2019-01-11T18:41:22.412Z,54
2019-01-11T18:46:20.444Z,54
2019-01-11T18:51:19.154Z,54
2019-01-11T18:56:17.777Z,54
2019-01-11T19:01:16.367Z,54
2019-01-11T19:06:14.994Z,53.9
2019-01-11T19:11:13.622Z,53.9
2019-01-11T19:16:12.270Z,53.9
2019-01-11T19:21:10.921Z,54
2019-01-11T19:26:09.463Z,53.9
2019-01-11T19:31:08.160Z,53.9
2019-01-11T19:36:06.751Z,54
2019-01-11T19:41:05.792Z,53.9
2019-01-11T19:46:04.251Z,54
2019-01-11T19:51:03.011Z,54
2019-01-11T19:56:01.445Z,54
2019-01-11T20:01:00.114Z,54
2019-01-11T20:05:58.701Z,54
2019-01-11T20:10:57.252Z,54
2019-01-11T20:15:55.849Z,54
2019-01-11T20:20:54.549Z,54.1
2019-01-11T20:25:53.115Z,54
2019-01-11T20:30:51.822Z,54
2019-01-11T20:35:50.030Z,54
2019-01-11T20:40:48.679Z,54
2019-01-11T20:45:47.361Z,54
2019-01-11T20:50:46.419Z,54
2019-01-11T20:55:44.948Z,54
2019-01-11T21:00:43.614Z,54
2019-01-11T21:05:42.444Z,54
2019-01-11T21:10:41.041Z,54
2019-01-11T21:15:39.650Z,54
2019-01-11T21:20:38.061Z,54
2019-01-11T21:25:36.654Z,54
2019-01-11T21:30:35.221Z,53.9
2019-01-11T21:35:33.800Z,54
2019-01-11T21:40:31.892Z,54
2019-01-11T21:45:30.307Z,54
2019-01-11T21:50:29.360Z,53.9
2019-01-11T21:55:27.818Z,53.9
2019-01-11T22:00:26.284Z,53.9
2019-01-11T22:05:24.974Z,54
2019-01-11T22:10:23.433Z,53.9
2019-01-11T22:15:21.973Z,54
2019-01-11T22:20:20.075Z,53.9
2019-01-11T22:25:18.576Z,53.9
2019-01-11T22:30:17.049Z,54
2019-01-11T22:35:15.654Z,54
2019-01-11T22:40:14.053Z,53.9
2019-01-11T22:45:12.664Z,53.9
2019-01-11T22:50:11.241Z,53.9
2019-01-11T22:55:09.694Z,53.9
2019-01-11T23:00:08.171Z,53.9
2019-01-11T23:05:06.864Z,53.9
2019-01-11T23:10:05.588Z,53.9
2019-01-11T23:15:04.237Z,54
2019-01-11T23:20:02.685Z,54
2019-01-11T23:25:01.208Z,53.9
2019-01-11T23:29:59.761Z,53.9
2019-01-11T23:34:58.399Z,53.9
2019-01-11T23:39:56.970Z,54
2019-01-11T23:44:55.607Z,54
2019-01-11T23:49:54.195Z,54
2019-01-11T23:54:52.750Z,54
2019-01-11T23:59:51.394Z,53.9
